Time;durP1;ratioP1;P1;durP2;ratioP2;P2;SDS_P1;SDS_P2;PMS_P1;PMS_P2;Temp;Humidity;BMP_temperature;BMP_pressure;BME280_temperature;BME280_humidity;BME280_pressure;Samples;Min_cycle;Max_cycle;Signal;HPM_P1;HPM_P2
2021/09/19 00:00:11;;;;;;;;;;;;;;;;;;5088057;28;20285;-81
2021/09/19 00:02:37;;;;;;;;;;;;;;;;;;5070605;28;19913;-81
2021/09/19 00:05:02;;;;;;;;;;;;;;;;;;5070204;28;19919;-81
2021/09/19 00:07:28;;;;;;;;;;;;;;;;;;5080863;28;19951;-81
2021/09/19 00:09:54;;;;;;;;;;;;;;;;;;5042678;28;19946;-82
2021/09/19 00:12:19;;;;;;;;;;;;;;;;;;5074061;28;19920;-82
2021/09/19 00:14:44;;;;;;;;;;;;;;;;;;5060134;28;19917;-82
2021/09/19 00:17:10;;;;;;;;;;;;;;;;;;5054360;28;19935;-82
2021/09/19 00:19:35;;;;;;;;;;;;;;;;;;5074719;28;19966;-82
2021/09/19 00:22:00;;;;;;;;;;;;;;;;;;5058052;28;20018;-82
2021/09/19 00:24:26;;;;;;;;;;;;;;;;;;5074529;28;19927;-81
2021/09/19 00:26:51;;;;;;;;;;;;;;;;;;5057934;28;20332;-82
2021/09/19 00:29:16;;;;;;;;;;;;;;;;;;5062058;28;20003;-82
2021/09/19 00:31:42;;;;;;;;;;;;;;;;;;5073528;28;19962;-82
2021/09/19 00:34:07;;;;;;;;;;;;;;;;;;5044001;28;19917;-83
2021/09/19 00:36:32;;;;;;;;;;;;;;;;;;5057606;28;19912;-80
2021/09/19 00:38:58;;;;;;;;;;;;;;;;;;5073591;28;19916;-80
2021/09/19 00:41:23;;;;;;;;;;;;;;;;;;5057591;28;19938;-80
2021/09/19 00:43:48;;;;;;;;;;;;;;;;;;5092741;28;20026;-81
2021/09/19 00:46:14;;;;;;;;;;;;;;;;;;5060768;28;19912;-80
2021/09/19 00:48:40;;;;;;;;;;;;;;;;;;5056682;28;20070;-80
2021/09/19 00:51:05;;;;;;;;;;;;;;;;;;5040919;28;19919;-80
2021/09/19 00:53:35;;;;;;;;;;;;;;;;;;5041880;28;19921;-80
2021/09/19 00:56:02;;;;;;;;;;;;;;;;;;5072531;28;19982;-80
2021/09/19 00:58:27;;;;;;;;;;;;;;;;;;5073766;28;19966;-80
2021/09/19 01:00:53;;;;;;;;;;;;;;;;;;5073532;28;19917;-81
2021/09/19 01:03:18;;;;;;;;;;;;;;;;;;5090303;28;20267;-80
2021/09/19 01:05:44;;;;;;;;;;;;;;;;;;5073293;28;20400;-80
2021/09/19 01:08:09;;;;;;;;;;;;;;;;;;5057092;28;19913;-81
2021/09/19 01:10:34;;;;;;;;;;;;;;;;;;5057403;28;19919;-81
2021/09/19 01:13:01;;;;;;;;;;;;;;;;;;5070030;28;19926;-80
2021/09/19 01:15:26;;;;;;;;;;;;;;;;;;5073366;28;20286;-80
2021/09/19 01:17:51;;;;;;;;;;;;;;;;;;5064533;28;19970;-81
2021/09/19 01:20:17;;;;;;;;;;;;;;;;;;5057179;28;19916;-80
2021/09/19 01:22:43;;;;;;;;;;;;;;;;;;5040122;28;20291;-80
2021/09/19 01:25:09;;;;;;;;;;;;;;;;;;5040041;28;20378;-80
2021/09/19 01:27:34;;;;;;;;;;;;;;;;;;5056365;28;19913;-80
2021/09/19 01:30:00;;;;;;;;;;;;;;;;;;5073038;28;19927;-81
2021/09/19 01:32:25;;;;;;;;;;;;;;;;;;5063687;28;19916;-81
2021/09/19 01:34:51;;;;;;;;;;;;;;;;;;5059866;28;19920;-80
2021/09/19 01:37:16;;;;;;;;;;;;;;;;;;5075920;28;19953;-80
2021/09/19 01:39:41;;;;;;;;;;;;;;;;;;5092827;28;20381;-81
2021/09/19 01:42:07;;;;;;;;;;;;;;;;;;5056600;28;20370;-80
2021/09/19 01:44:32;;;;;;;;;;;;;;;;;;5056346;28;20280;-80
2021/09/19 01:46:57;;;;;;;;;;;;;;;;;;5058598;28;19918;-81
2021/09/19 01:49:23;;;;;;;;;;;;;;;;;;5091622;28;20404;-80
2021/09/19 01:51:48;;;;;;;;;;;;;;;;;;5068028;28;19970;-80
2021/09/19 01:54:14;;;;;;;;;;;;;;;;;;5056383;28;19912;-80
2021/09/19 01:56:39;;;;;;;;;;;;;;;;;;5056013;28;19943;-81
2021/09/19 01:59:04;;;;;;;;;;;;;;;;;;5055733;28;19913;-80
2021/09/19 02:01:30;;;;;;;;;;;;;;;;;;5067330;28;20010;-80
2021/09/19 02:03:56;;;;;;;;;;;;;;;;;;5076018;28;19927;-80
2021/09/19 02:06:21;;;;;;;;;;;;;;;;;;5092604;28;19920;-80
2021/09/19 02:08:47;;;;;;;;;;;;;;;;;;5055325;28;19917;-80
2021/09/19 02:11:12;;;;;;;;;;;;;;;;;;5081315;28;20373;-80
2021/09/19 02:13:38;;;;;;;;;;;;;;;;;;5092747;28;19912;-80
2021/09/19 02:16:04;;;;;;;;;;;;;;;;;;5059132;28;19919;-81
2021/09/19 02:18:29;;;;;;;;;;;;;;;;;;5092809;28;19955;-81
2021/09/19 02:20:54;;;;;;;;;;;;;;;;;;5054755;28;19928;-80
2021/09/19 02:23:20;;;;;;;;;;;;;;;;;;5056098;28;19922;-80
2021/09/19 02:25:45;;;;;;;;;;;;;;;;;;5072194;28;20601;-81
2021/09/19 02:28:10;;;;;;;;;;;;;;;;;;5050760;28;19920;-80
2021/09/19 02:30:35;;;;;;;;;;;;;;;;;;5040650;28;20276;-80
2021/09/19 02:33:01;;;;;;;;;;;;;;;;;;5072231;28;20386;-80
2021/09/19 02:35:26;;;;;;;;;;;;;;;;;;5055335;28;19949;-81
2021/09/19 02:37:51;;;;;;;;;;;;;;;;;;5054984;28;19921;-80
2021/09/19 02:40:17;;;;;;;;;;;;;;;;;;5055349;28;19919;-80
2021/09/19 02:42:42;;;;;;;;;;;;;;;;;;5064042;28;19917;-80
2021/09/19 02:45:08;;;;;;;;;;;;;;;;;;5055382;28;19916;-81
2021/09/19 02:47:34;;;;;;;;;;;;;;;;;;5071438;28;20008;-80
2021/09/19 02:49:59;;;;;;;;;;;;;;;;;;5072921;28;19917;-80
2021/09/19 02:52:24;;;;;;;;;;;;;;;;;;5068254;28;19967;-80
2021/09/19 02:54:50;;;;;;;;;;;;;;;;;;5039766;28;19920;-81
2021/09/19 02:57:15;;;;;;;;;;;;;;;;;;5064440;28;19916;-80
2021/09/19 02:59:40;;;;;;;;;;;;;;;;;;5088730;28;19920;-80
2021/09/19 03:02:06;;;;;;;;;;;;;;;;;;5069597;28;19924;-80
2021/09/19 03:04:32;;;;;;;;;;;;;;;;;;5078748;28;19916;-81
2021/09/19 03:06:57;;;;;;;;;;;;;;;;;;5071753;28;19919;-81
2021/09/19 03:09:23;;;;;;;;;;;;;;;;;;5071821;28;20378;-80
2021/09/19 03:11:48;;;;;;;;;;;;;;;;;;5068850;28;19916;-81
2021/09/19 03:14:13;;;;;;;;;;;;;;;;;;5091872;28;20263;-80
2021/09/19 03:16:39;;;;;;;;;;;;;;;;;;5091191;28;19994;-81
2021/09/19 03:19:04;;;;;;;;;;;;;;;;;;5074883;28;20015;-80
2021/09/19 03:21:29;;;;;;;;;;;;;;;;;;5070681;28;19935;-81
2021/09/19 03:23:55;;;;;;;;;;;;;;;;;;5038247;28;19966;-81
2021/09/19 03:26:20;;;;;;;;;;;;;;;;;;5068142;28;19928;-80
2021/09/19 03:28:45;;;;;;;;;;;;;;;;;;5071455;28;19994;-80
2021/09/19 03:31:11;;;;;;;;;;;;;;;;;;5065491;28;20289;-80
2021/09/19 03:33:36;;;;;;;;;;;;;;;;;;5054764;28;19916;-80
2021/09/19 03:36:01;;;;;;;;;;;;;;;;;;5077826;28;19916;-80
2021/09/19 03:38:27;;;;;;;;;;;;;;;;;;5057818;28;19963;-81
2021/09/19 03:40:52;;;;;;;;;;;;;;;;;;5074391;28;20423;-80
2021/09/19 03:43:17;;;;;;;;;;;;;;;;;;5074621;28;19912;-81
2021/09/19 03:45:43;;;;;;;;;;;;;;;;;;5074212;28;19954;-80
2021/09/19 03:48:08;;;;;;;;;;;;;;;;;;5074475;28;19958;-80
2021/09/19 03:50:34;;;;;;;;;;;;;;;;;;5042493;28;19952;-80
2021/09/19 03:52:59;;;;;;;;;;;;;;;;;;5065528;28;19916;-80
2021/09/19 03:55:25;;;;;;;;;;;;;;;;;;5079558;28;19920;-80
2021/09/19 03:57:50;;;;;;;;;;;;;;;;;;5074198;28;19916;-81
2021/09/19 04:00:15;;;;;;;;;;;;;;;;;;5089631;28;20000;-80
2021/09/19 04:02:41;;;;;;;;;;;;;;;;;;5037662;28;19999;-80
2021/09/19 04:05:06;;;;;;;;;;;;;;;;;;5053584;28;20362;-81
2021/09/19 04:07:32;;;;;;;;;;;;;;;;;;5070563;28;20317;-80
2021/09/19 04:09:57;;;;;;;;;;;;;;;;;;5053981;28;19920;-80
2021/09/19 04:12:22;;;;;;;;;;;;;;;;;;5055301;28;20286;-80
2021/09/19 04:14:48;;;;;;;;;;;;;;;;;;5053607;28;19993;-80
2021/09/19 04:17:13;;;;;;;;;;;;;;;;;;5067473;28;19920;-80
2021/09/19 04:19:38;;;;;;;;;;;;;;;;;;5087843;28;19919;-81
2021/09/19 04:22:04;;;;;;;;;;;;;;;;;;5055678;28;19919;-80
2021/09/19 04:24:29;;;;;;;;;;;;;;;;;;5057332;28;19913;-80
2021/09/19 04:26:55;;;;;;;;;;;;;;;;;;5045852;28;19955;-80
2021/09/19 04:29:21;;;;;;;;;;;;;;;;;;5056820;28;20671;-81
2021/09/19 04:31:46;;;;;;;;;;;;;;;;;;5057363;28;19912;-80
2021/09/19 04:34:12;;;;;;;;;;;;;;;;;;5073964;28;19912;-81
2021/09/19 04:36:37;;;;;;;;;;;;;;;;;;5069932;28;20050;-80
2021/09/19 04:39:03;;;;;;;;;;;;;;;;;;5053621;28;19920;-80
2021/09/19 04:41:28;;;;;;;;;;;;;;;;;;5070062;28;19955;-81
2021/09/19 04:43:53;;;;;;;;;;;;;;;;;;5069088;28;19919;-81
2021/09/19 04:46:19;;;;;;;;;;;;;;;;;;5053254;28;19916;-81
2021/09/19 04:48:44;;;;;;;;;;;;;;;;;;5059619;28;19912;-81
2021/09/19 04:51:09;;;;;;;;;;;;;;;;;;5048034;28;19921;-81
2021/09/19 04:53:35;;;;;;;;;;;;;;;;;;5067862;28;19916;-81
2021/09/19 04:56:00;;;;;;;;;;;;;;;;;;5069199;28;19932;-81
2021/09/19 04:58:26;;;;;;;;;;;;;;;;;;5058619;28;19950;-81
2021/09/19 05:00:51;;;;;;;;;;;;;;;;;;5053628;28;19943;-81
2021/09/19 05:03:16;;;;;;;;;;;;;;;;;;5075286;28;19962;-81
2021/09/19 05:05:42;;;;;;;;;;;;;;;;;;5069346;28;20005;-80
2021/09/19 05:08:07;;;;;;;;;;;;;;;;;;5056770;28;19919;-80
2021/09/19 05:10:32;;;;;;;;;;;;;;;;;;5078915;28;19916;-80
2021/09/19 05:12:58;;;;;;;;;;;;;;;;;;5077068;28;19937;-80
2021/09/19 05:15:23;;;;;;;;;;;;;;;;;;5077183;28;19912;-80
2021/09/19 05:17:48;;;;;;;;;;;;;;;;;;5076732;28;19957;-81
2021/09/19 05:20:14;;;;;;;;;;;;;;;;;;5056910;28;20047;-80
2021/09/19 05:22:39;;;;;;;;;;;;;;;;;;5056348;28;19927;-80
2021/09/19 05:25:04;;;;;;;;;;;;;;;;;;5054998;28;19921;-81
2021/09/19 05:27:30;;;;;;;;;;;;;;;;;;5037855;28;19923;-81
2021/09/19 05:29:55;;;;;;;;;;;;;;;;;;5065175;28;19974;-81
2021/09/19 05:32:21;;;;;;;;;;;;;;;;;;5062555;28;19923;-81
2021/09/19 05:34:46;;;;;;;;;;;;;;;;;;5093686;28;20430;-82
2021/09/19 05:37:11;;;;;;;;;;;;;;;;;;5076061;28;19916;-81
2021/09/19 05:39:36;;;;;;;;;;;;;;;;;;5092910;28;19916;-81
2021/09/19 05:42:02;;;;;;;;;;;;;;;;;;5056748;28;20014;-82
2021/09/19 05:44:28;;;;;;;;;;;;;;;;;;5056862;28;19957;-81
2021/09/19 05:46:53;;;;;;;;;;;;;;;;;;5064715;28;20006;-82
2021/09/19 05:49:18;;;;;;;;;;;;;;;;;;5061745;28;19916;-82
2021/09/19 05:51:43;;;;;;;;;;;;;;;;;;5072794;28;19922;-81
2021/09/19 05:54:09;;;;;;;;;;;;;;;;;;5064175;28;19962;-81
2021/09/19 05:56:34;;;;;;;;;;;;;;;;;;5045499;28;19927;-81
2021/09/19 05:58:59;;;;;;;;;;;;;;;;;;5071246;28;19923;-82
2021/09/19 06:01:25;;;;;;;;;;;;;;;;;;5065257;28;19995;-81
2021/09/19 06:03:50;;;;;;;;;;;;;;;;;;5072775;28;19916;-82
2021/09/19 06:06:15;;;;;;;;;;;;;;;;;;5055648;28;19920;-81
2021/09/19 06:08:41;;;;;;;;;;;;;;;;;;5056606;28;19920;-81
2021/09/19 06:11:06;;;;;;;;;;;;;;;;;;5041212;28;19921;-82
2021/09/19 06:13:32;;;;;;;;;;;;;;;;;;5089677;28;19917;-81
2021/09/19 06:15:57;;;;;;;;;;;;;;;;;;5064699;28;19955;-82
2021/09/19 06:18:22;;;;;;;;;;;;;;;;;;5064302;28;20007;-83
2021/09/19 06:20:48;;;;;;;;;;;;;;;;;;5042273;28;19948;-84
2021/09/19 06:23:13;;;;;;;;;;;;;;;;;;5060635;28;20013;-83
2021/09/19 06:25:38;;;;;;;;;;;;;;;;;;5055495;28;19928;-83
2021/09/19 06:28:04;;;;;;;;;;;;;;;;;;5067165;28;19916;-83
2021/09/19 06:30:29;;;;;;;;;;;;;;;;;;5055254;28;19912;-83
2021/09/19 06:32:54;;;;;;;;;;;;;;;;;;5073806;28;19919;-83
2021/09/19 06:35:20;;;;;;;;;;;;;;;;;;5058363;28;19926;-83
2021/09/19 06:37:45;;;;;;;;;;;;;;;;;;5075496;28;19995;-82
2021/09/19 06:40:11;;;;;;;;;;;;;;;;;;5075905;28;20778;-83
2021/09/19 06:42:36;;;;;;;;;;;;;;;;;;5072081;28;20456;-82
2021/09/19 06:45:01;;;;;;;;;;;;;;;;;;5075033;28;19951;-82
2021/09/19 06:47:27;;;;;;;;;;;;;;;;;;5071508;28;19913;-83
2021/09/19 06:49:53;;;;;;;;;;;;;;;;;;5072152;28;20251;-83
2021/09/19 06:52:18;;;;;;;;;;;;;;;;;;5055118;28;19912;-80
2021/09/19 06:54:43;;;;;;;;;;;;;;;;;;5055040;28;19913;-82
2021/09/19 06:57:09;;;;;;;;;;;;;;;;;;5055109;28;19969;-82
2021/09/19 06:59:35;;;;;;;;;;;;;;;;;;5038483;28;19912;-82
2021/09/19 07:02:00;;;;;;;;;;;;;;;;;;5038243;28;19917;-81
2021/09/19 07:04:25;;;;;;;;;;;;;;;;;;5054649;28;19912;-82
2021/09/19 07:06:51;;;;;;;;;;;;;;;;;;5054624;28;19981;-82
2021/09/19 07:09:16;;;;;;;;;;;;;;;;;;5038310;28;19916;-82
2021/09/19 07:11:41;;;;;;;;;;;;;;;;;;5038410;28;19940;-82
2021/09/19 07:14:07;;;;;;;;;;;;;;;;;;5038271;28;20255;-81
2021/09/19 07:16:32;;;;;;;;;;;;;;;;;;5054803;28;19913;-82
2021/09/19 07:18:58;;;;;;;;;;;;;;;;;;5036490;28;19916;-82
2021/09/19 07:21:23;;;;;;;;;;;;;;;;;;5068829;28;19912;-82
2021/09/19 07:23:49;;;;;;;;;;;;;;;;;;5051176;28;20385;-81
2021/09/19 07:26:14;;;;;;;;;;;;;;;;;;5071427;28;20344;-82
2021/09/19 07:28:40;;;;;;;;;;;;;;;;;;5060467;28;19923;-81
2021/09/19 07:31:05;;;;;;;;;;;;;;;;;;5055105;28;20283;-82
2021/09/19 07:33:30;;;;;;;;;;;;;;;;;;5069140;28;20358;-82
2021/09/19 07:35:56;;;;;;;;;;;;;;;;;;5087758;28;20519;-82
2021/09/19 07:38:22;;;;;;;;;;;;;;;;;;5070978;28;19916;-81
2021/09/19 07:40:47;;;;;;;;;;;;;;;;;;5071068;28;19912;-80
2021/09/19 07:43:12;;;;;;;;;;;;;;;;;;5087097;28;19938;-81
2021/09/19 07:45:38;;;;;;;;;;;;;;;;;;5082460;28;19935;-80
2021/09/19 07:48:13;;;;;;;;;;;;;;;;;;5054121;28;19966;-80
2021/09/19 07:50:38;;;;;;;;;;;;;;;;;;5060257;28;19931;-81
2021/09/19 07:53:04;;;;;;;;;;;;;;;;;;5068862;28;19912;-80
2021/09/19 07:55:31;;;;;;;;;;;;;;;;;;5060481;28;19956;-80
2021/09/19 07:57:56;;;;;;;;;;;;;;;;;;5043618;28;19931;-80
2021/09/19 08:00:22;;;;;;;;;;;;;;;;;;5069345;28;19913;-80
2021/09/19 08:02:47;;;;;;;;;;;;;;;;;;5070606;28;19913;-81
2021/09/19 08:05:13;;;;;;;;;;;;;;;;;;5058754;28;19958;-80
2021/09/19 08:07:38;;;;;;;;;;;;;;;;;;5073447;28;19941;-80
2021/09/19 08:10:04;;;;;;;;;;;;;;;;;;5057743;28;20001;-80
2021/09/19 08:12:29;;;;;;;;;;;;;;;;;;5053869;28;19920;-80
2021/09/19 08:14:55;;;;;;;;;;;;;;;;;;5054063;28;19918;-81
2021/09/19 08:17:20;;;;;;;;;;;;;;;;;;5053331;28;19913;-80
2021/09/19 08:19:45;;;;;;;;;;;;;;;;;;5053984;28;19919;-80
2021/09/19 08:22:11;;;;;;;;;;;;;;;;;;5054200;28;19924;-80
2021/09/19 08:24:36;;;;;;;;;;;;;;;;;;5071018;28;19967;-80
2021/09/19 08:27:03;;;;;;;;;;;;;;;;;;5040549;28;19924;-80
2021/09/19 08:29:28;;;;;;;;;;;;;;;;;;5070024;28;19923;-80
2021/09/19 08:31:54;;;;;;;;;;;;;;;;;;5053353;28;19912;-80
2021/09/19 08:34:19;;;;;;;;;;;;;;;;;;5037676;28;19912;-81
2021/09/19 08:36:44;;;;;;;;;;;;;;;;;;5052948;28;19917;-80
2021/09/19 08:39:10;;;;;;;;;;;;;;;;;;5073319;28;19932;-81
2021/09/19 08:41:35;;;;;;;;;;;;;;;;;;5050475;28;19927;-81
2021/09/19 08:44:02;;;;;;;;;;;;;;;;;;5061149;28;19931;-80
2021/09/19 08:46:29;;;;;;;;;;;;;;;;;;5089918;28;19975;-81
2021/09/19 08:48:55;;;;;;;;;;;;;;;;;;5092878;28;20270;-81
2021/09/19 08:51:20;;;;;;;;;;;;;;;;;;5061076;28;20443;-81
2021/09/19 08:53:46;;;;;;;;;;;;;;;;;;5060249;28;19915;-80
2021/09/19 08:56:11;;;;;;;;;;;;;;;;;;5040617;28;20015;-79
2021/09/19 08:58:37;;;;;;;;;;;;;;;;;;5073997;28;19932;-79
2021/09/19 09:01:03;;;;;;;;;;;;;;;;;;5057031;28;19912;-79
2021/09/19 09:03:29;;;;;;;;;;;;;;;;;;5056994;28;19947;-79
2021/09/19 09:05:54;;;;;;;;;;;;;;;;;;5073680;28;19912;-80
2021/09/19 09:08:20;;;;;;;;;;;;;;;;;;5072590;28;19918;-81
2021/09/19 09:10:46;;;;;;;;;;;;;;;;;;5055615;28;19921;-80
2021/09/19 09:13:15;;;;;;;;;;;;;;;;;;5056223;28;19957;-82
2021/09/19 09:15:47;;;;;;;;;;;;;;;;;;5057218;28;19923;-82
2021/09/19 09:18:13;;;;;;;;;;;;;;;;;;5056978;28;19912;-81
2021/09/19 09:21:14;;;;;;;;;;;;;;;;;;5076417;28;19923;-86
2021/09/19 09:23:40;;;;;;;;;;;;;;;;;;5035708;28;19998;-80
2021/09/19 09:26:12;;;;;;;;;;;;;;;;;;5047685;28;19920;-80
2021/09/19 09:28:39;;;;;;;;;;;;;;;;;;5059850;28;20421;-79
2021/09/19 09:31:04;;;;;;;;;;;;;;;;;;5055126;28;19924;-80
2021/09/19 09:33:30;;;;;;;;;;;;;;;;;;5073513;28;19912;-80
2021/09/19 09:35:55;;;;;;;;;;;;;;;;;;5047701;28;19916;-81
2021/09/19 09:38:20;;;;;;;;;;;;;;;;;;5073452;28;19916;-81
2021/09/19 09:40:46;;;;;;;;;;;;;;;;;;5074309;28;19916;-79
2021/09/19 09:43:12;;;;;;;;;;;;;;;;;;5056024;28;19916;-80
2021/09/19 09:45:38;;;;;;;;;;;;;;;;;;5072292;28;20255;-80
2021/09/19 09:48:04;;;;;;;;;;;;;;;;;;5084599;28;20003;-79
2021/09/19 09:50:29;;;;;;;;;;;;;;;;;;5055953;28;19923;-79
2021/09/19 09:53:11;;;;;;;;;;;;;;;;;;5083612;28;19916;-80
2021/09/19 09:55:40;;;;;;;;;;;;;;;;;;5072373;28;19927;-80
2021/09/19 09:58:12;;;;;;;;;;;;;;;;;;5072448;28;19919;-80
2021/09/19 10:00:38;;;;;;;;;;;;;;;;;;5073082;28;19912;-80
2021/09/19 10:03:03;;;;;;;;;;;;;;;;;;5037782;28;19912;-80
2021/09/19 10:05:29;;;;;;;;;;;;;;;;;;5070907;28;19920;-80
2021/09/19 10:07:54;;;;;;;;;;;;;;;;;;5055633;28;20455;-80
2021/09/19 10:10:20;;;;;;;;;;;;;;;;;;5056192;28;19950;-80
2021/09/19 10:12:47;;;;;;;;;;;;;;;;;;5077800;28;19912;-80
2021/09/19 10:15:12;;;;;;;;;;;;;;;;;;5093445;28;19916;-79
2021/09/19 10:17:37;;;;;;;;;;;;;;;;;;5059289;28;19966;-79
2021/09/19 10:20:04;;;;;;;;;;;;;;;;;;5075679;28;19912;-79
2021/09/19 10:22:29;;;;;;;;;;;;;;;;;;5092753;28;19912;-80
2021/09/19 10:24:54;;;;;;;;;;;;;;;;;;5092310;28;19919;-80
2021/09/19 10:27:23;;;;;;;;;;;;;;;;;;5074054;28;20015;-79
2021/09/19 10:30:06;;;;;;;;;;;;;;;;;;5072753;28;19912;-80
2021/09/19 10:32:38;;;;;;;;;;;;;;;;;;5072412;28;19952;-80
2021/09/19 10:35:15;;;;;;;;;;;;;;;;;;5089567;28;19916;-80
2021/09/19 10:37:51;;;;;;;;;;;;;;;;;;5091936;28;19916;-80
2021/09/19 10:40:35;;;;;;;;;;;;;;;;;;5092723;28;19927;-79
2021/09/19 10:43:01;;;;;;;;;;;;;;;;;;5071633;28;19916;-79
2021/09/19 10:45:42;;;;;;;;;;;;;;;;;;5072529;28;19940;-80
2021/09/19 10:48:17;;;;;;;;;;;;;;;;;;5075649;28;20005;-81
2021/09/19 10:50:43;;;;;;;;;;;;;;;;;;5075346;28;19942;-80
2021/09/19 10:53:15;;;;;;;;;;;;;;;;;;5075051;28;20424;-79
2021/09/19 10:55:47;;;;;;;;;;;;;;;;;;5071327;28;19920;-80
2021/09/19 10:58:13;;;;;;;;;;;;;;;;;;5072839;28;19926;-80
2021/09/19 11:00:39;;;;;;;;;;;;;;;;;;5054605;28;19998;-80
2021/09/19 11:03:25;;;;;;;;;;;;;;;;;;5055219;28;19919;-79
2021/09/19 11:05:51;;;;;;;;;;;;;;;;;;5054998;28;19922;-79
2021/09/19 11:08:19;;;;;;;;;;;;;;;;;;5071621;28;19917;-80
2021/09/19 11:10:44;;;;;;;;;;;;;;;;;;5072726;28;19916;-80
2021/09/19 11:13:19;;;;;;;;;;;;;;;;;;5071517;28;19923;-80
2021/09/19 11:15:45;;;;;;;;;;;;;;;;;;5071469;28;19912;-79
2021/09/19 11:18:25;;;;;;;;;;;;;;;;;;5054563;28;19916;-80
2021/09/19 11:21:09;;;;;;;;;;;;;;;;;;5054700;28;19912;-80
2021/09/19 11:23:35;;;;;;;;;;;;;;;;;;5071458;28;19912;-80
2021/09/19 11:26:01;;;;;;;;;;;;;;;;;;5070582;28;20072;-80
2021/09/19 11:28:26;;;;;;;;;;;;;;;;;;5054122;28;19921;-80
2021/09/19 11:31:01;;;;;;;;;;;;;;;;;;5080056;28;19920;-80
2021/09/19 11:33:28;;;;;;;;;;;;;;;;;;5074060;28;19912;-80
2021/09/19 11:35:53;;;;;;;;;;;;;;;;;;5073931;28;19912;-80
2021/09/19 11:38:19;;;;;;;;;;;;;;;;;;5091378;28;19919;-80
2021/09/19 11:40:44;;;;;;;;;;;;;;;;;;5074615;28;20396;-80
2021/09/19 11:43:09;;;;;;;;;;;;;;;;;;5074177;28;19926;-79
2021/09/19 11:45:34;;;;;;;;;;;;;;;;;;5091543;28;20014;-80
2021/09/19 11:48:00;;;;;;;;;;;;;;;;;;5070943;28;20398;-80
2021/09/19 11:50:25;;;;;;;;;;;;;;;;;;5054472;28;19967;-80
2021/09/19 11:52:53;;;;;;;;;;;;;;;;;;5054036;28;19955;-80
2021/09/19 11:55:22;;;;;;;;;;;;;;;;;;5080725;28;19920;-80
2021/09/19 11:57:47;;;;;;;;;;;;;;;;;;5069719;28;19920;-80
2021/09/19 12:00:12;;;;;;;;;;;;;;;;;;5087700;28;19912;-80
2021/09/19 12:02:40;;;;;;;;;;;;;;;;;;5087859;28;19919;-80
2021/09/19 12:05:05;;;;;;;;;;;;;;;;;;5087199;28;19912;-80
2021/09/19 12:07:30;;;;;;;;;;;;;;;;;;5053721;28;19928;-80
2021/09/19 12:09:56;;;;;;;;;;;;;;;;;;5071087;28;19920;-80
2021/09/19 12:12:21;;;;;;;;;;;;;;;;;;5055230;28;19917;-80
2021/09/19 12:14:50;;;;;;;;;;;;;;;;;;5074910;28;19917;-80
2021/09/19 12:17:16;;;;;;;;;;;;;;;;;;5074761;28;20371;-80
2021/09/19 12:19:42;;;;;;;;;;;;;;;;;;5060788;28;19931;-80
2021/09/19 12:22:08;;;;;;;;;;;;;;;;;;5061227;28;19923;-80
2021/09/19 12:24:37;;;;;;;;;;;;;;;;;;5075587;28;19936;-80
2021/09/19 12:27:09;;;;;;;;;;;;;;;;;;5066156;28;20495;-80
2021/09/19 12:29:34;;;;;;;;;;;;;;;;;;5078031;28;20003;-80
2021/09/19 12:32:00;;;;;;;;;;;;;;;;;;5079868;28;20323;-80
2021/09/19 12:34:26;;;;;;;;;;;;;;;;;;5057701;28;19913;-80
2021/09/19 12:36:52;;;;;;;;;;;;;;;;;;5073596;28;20034;-80
2021/09/19 12:39:21;;;;;;;;;;;;;;;;;;5057692;28;20259;-80
2021/09/19 12:41:48;;;;;;;;;;;;;;;;;;5058794;28;19920;-80
2021/09/19 12:44:17;;;;;;;;;;;;;;;;;;5079457;28;19966;-80
2021/09/19 12:46:43;;;;;;;;;;;;;;;;;;5091164;28;19953;-80
2021/09/19 12:49:09;;;;;;;;;;;;;;;;;;5060967;28;19960;-80
2021/09/19 12:51:34;;;;;;;;;;;;;;;;;;5093880;28;19955;-80
2021/09/19 12:53:59;;;;;;;;;;;;;;;;;;5074887;28;19912;-80
2021/09/19 12:56:25;;;;;;;;;;;;;;;;;;5073406;28;19924;-80
2021/09/19 12:58:50;;;;;;;;;;;;;;;;;;5073801;28;20392;-80
2021/09/19 13:01:17;;;;;;;;;;;;;;;;;;5074022;28;20421;-80
2021/09/19 13:03:47;;;;;;;;;;;;;;;;;;5057647;28;19916;-80
2021/09/19 13:06:12;;;;;;;;;;;;;;;;;;5057347;28;19974;-80
2021/09/19 13:08:37;;;;;;;;;;;;;;;;;;5056990;28;19952;-80
2021/09/19 13:11:03;;;;;;;;;;;;;;;;;;5057192;28;19965;-80
2021/09/19 13:13:28;;;;;;;;;;;;;;;;;;5073876;28;20230;-80
2021/09/19 13:15:53;;;;;;;;;;;;;;;;;;5040442;28;19958;-80
2021/09/19 13:18:19;;;;;;;;;;;;;;;;;;5040322;28;19912;-80
2021/09/19 13:20:44;;;;;;;;;;;;;;;;;;5073623;28;19948;-80
2021/09/19 13:23:09;;;;;;;;;;;;;;;;;;5056957;28;19965;-80
2021/09/19 13:25:35;;;;;;;;;;;;;;;;;;5062360;28;19920;-80
2021/09/19 13:28:00;;;;;;;;;;;;;;;;;;5093688;28;19912;-80
2021/09/19 13:30:25;;;;;;;;;;;;;;;;;;5079143;28;19917;-80
2021/09/19 13:32:51;;;;;;;;;;;;;;;;;;5077056;28;20387;-80
2021/09/19 13:35:16;;;;;;;;;;;;;;;;;;5068902;28;19923;-80
2021/09/19 13:37:42;;;;;;;;;;;;;;;;;;5056181;28;20003;-80
2021/09/19 13:40:08;;;;;;;;;;;;;;;;;;5056532;28;19918;-80
2021/09/19 13:42:33;;;;;;;;;;;;;;;;;;5073155;28;19913;-80
2021/09/19 13:44:58;;;;;;;;;;;;;;;;;;5056338;28;19982;-80
2021/09/19 13:47:24;;;;;;;;;;;;;;;;;;5062521;28;19921;-80
2021/09/19 13:49:49;;;;;;;;;;;;;;;;;;5076209;28;19912;-80
2021/09/19 13:52:15;;;;;;;;;;;;;;;;;;5076486;28;19912;-80
2021/09/19 13:54:40;;;;;;;;;;;;;;;;;;5084876;28;20018;-80
2021/09/19 13:57:05;;;;;;;;;;;;;;;;;;5072544;28;19917;-81
2021/09/19 13:59:30;;;;;;;;;;;;;;;;;;5039494;28;19927;-80
2021/09/19 14:01:56;;;;;;;;;;;;;;;;;;5072979;28;19923;-80
2021/09/19 14:04:21;;;;;;;;;;;;;;;;;;5072740;28;19925;-80
2021/09/19 14:06:46;;;;;;;;;;;;;;;;;;5055370;28;20424;-80
2021/09/19 14:09:12;;;;;;;;;;;;;;;;;;5072446;28;19924;-80
2021/09/19 14:11:37;;;;;;;;;;;;;;;;;;5072604;28;19920;-80
2021/09/19 14:14:06;;;;;;;;;;;;;;;;;;5055787;28;19981;-80
2021/09/19 14:16:31;;;;;;;;;;;;;;;;;;5072526;28;19917;-80
2021/09/19 14:18:57;;;;;;;;;;;;;;;;;;5072240;28;19920;-80
2021/09/19 14:21:22;;;;;;;;;;;;;;;;;;5055831;28;19958;-80
2021/09/19 14:23:48;;;;;;;;;;;;;;;;;;5072122;28;19934;-80
2021/09/19 14:26:13;;;;;;;;;;;;;;;;;;5072168;28;19925;-80
2021/09/19 14:28:38;;;;;;;;;;;;;;;;;;5091237;28;19912;-80
2021/09/19 14:31:04;;;;;;;;;;;;;;;;;;5092472;28;19919;-80
2021/09/19 14:33:29;;;;;;;;;;;;;;;;;;5073379;28;19916;-80
2021/09/19 14:35:54;;;;;;;;;;;;;;;;;;5089192;28;19916;-80
2021/09/19 14:38:19;;;;;;;;;;;;;;;;;;5072882;28;19959;-80
2021/09/19 14:40:45;;;;;;;;;;;;;;;;;;5089798;28;20385;-80
2021/09/19 14:43:10;;;;;;;;;;;;;;;;;;5092285;28;19919;-80
2021/09/19 14:45:35;;;;;;;;;;;;;;;;;;5092784;28;20300;-80
2021/09/19 14:48:00;;;;;;;;;;;;;;;;;;5091984;28;19923;-81
2021/09/19 14:50:26;;;;;;;;;;;;;;;;;;5092423;28;19947;-80
2021/09/19 14:52:51;;;;;;;;;;;;;;;;;;5075240;28;19923;-80
2021/09/19 14:55:16;;;;;;;;;;;;;;;;;;5071143;28;19947;-81
2021/09/19 14:57:42;;;;;;;;;;;;;;;;;;5054795;28;19922;-81
2021/09/19 15:00:07;;;;;;;;;;;;;;;;;;5071571;28;19919;-80
2021/09/19 15:02:33;;;;;;;;;;;;;;;;;;5055102;28;20270;-80
2021/09/19 15:04:58;;;;;;;;;;;;;;;;;;5054821;28;19912;-80
2021/09/19 15:07:23;;;;;;;;;;;;;;;;;;5054411;28;20006;-81
2021/09/19 15:09:48;;;;;;;;;;;;;;;;;;5054768;28;19920;-81
2021/09/19 15:12:14;;;;;;;;;;;;;;;;;;5054144;28;19919;-80
2021/09/19 15:14:39;;;;;;;;;;;;;;;;;;5054853;28;20391;-81
2021/09/19 15:17:04;;;;;;;;;;;;;;;;;;5054161;28;19916;-80
2021/09/19 15:19:30;;;;;;;;;;;;;;;;;;5071165;28;19916;-78
2021/09/19 15:21:55;;;;;;;;;;;;;;;;;;5054741;28;19915;-78
2021/09/19 15:24:20;;;;;;;;;;;;;;;;;;5070803;28;19960;-78
2021/09/19 15:26:46;;;;;;;;;;;;;;;;;;5057685;28;19916;-78
2021/09/19 15:29:11;;;;;;;;;;;;;;;;;;5054556;28;19920;-79
2021/09/19 15:31:36;;;;;;;;;;;;;;;;;;5053963;28;20285;-79
2021/09/19 15:34:02;;;;;;;;;;;;;;;;;;5071209;28;19917;-78
2021/09/19 15:36:27;;;;;;;;;;;;;;;;;;5071109;28;19912;-78
2021/09/19 15:38:53;;;;;;;;;;;;;;;;;;5036924;28;19912;-78
2021/09/19 15:41:21;;;;;;;;;;;;;;;;;;5068708;28;20373;-78
2021/09/19 15:43:47;;;;;;;;;;;;;;;;;;5072492;28;19923;-78
2021/09/19 15:46:19;;;;;;;;;;;;;;;;;;5075560;28;19912;-79
2021/09/19 15:48:46;;;;;;;;;;;;;;;;;;5073862;28;19919;-78
2021/09/19 15:51:12;;;;;;;;;;;;;;;;;;5073355;28;19916;-79
2021/09/19 15:53:37;;;;;;;;;;;;;;;;;;5091071;28;20381;-79
2021/09/19 15:56:03;;;;;;;;;;;;;;;;;;5070392;28;19927;-79
2021/09/19 15:58:30;;;;;;;;;;;;;;;;;;5057002;28;23295;-79
2021/09/19 16:00:56;;;;;;;;;;;;;;;;;;5090366;28;19957;-80
2021/09/19 16:03:22;;;;;;;;;;;;;;;;;;5073690;28;20300;-78
2021/09/19 16:05:50;;;;;;;;;;;;;;;;;;5090599;28;20010;-79
2021/09/19 16:08:16;;;;;;;;;;;;;;;;;;5073341;28;20397;-79
2021/09/19 16:10:41;;;;;;;;;;;;;;;;;;5090569;28;19916;-78
2021/09/19 16:13:06;;;;;;;;;;;;;;;;;;5074076;28;19916;-79
2021/09/19 16:15:31;;;;;;;;;;;;;;;;;;5073791;28;20377;-78
2021/09/19 16:17:57;;;;;;;;;;;;;;;;;;5090621;28;19916;-78
2021/09/19 16:20:22;;;;;;;;;;;;;;;;;;5090722;28;19912;-79
2021/09/19 16:22:47;;;;;;;;;;;;;;;;;;5072826;28;19916;-78
2021/09/19 16:25:13;;;;;;;;;;;;;;;;;;5091324;28;19916;-79
2021/09/19 16:27:38;;;;;;;;;;;;;;;;;;5073908;28;19963;-79
2021/09/19 16:30:04;;;;;;;;;;;;;;;;;;5072091;28;19916;-79
2021/09/19 16:32:29;;;;;;;;;;;;;;;;;;5061565;28;20491;-79
2021/09/19 16:34:54;;;;;;;;;;;;;;;;;;5070521;28;19912;-79
2021/09/19 16:37:20;;;;;;;;;;;;;;;;;;5088109;28;19912;-79